Horizon — WDF5156 — position and weather

sailwx.info

Track history (hours):
 
Tides and Currents Weather Stations Pressure Air Temp Water Temp Dewpoint Dewpoint Depression Visibility Wind Speed Wind Dir Waves Ship Positions

Horizon

Owner: ACA MARINE CORP, MAYFIELD HEIGHTS, OH. More information available from US FCC via Universal Licensing System and Coast Guard Vessel Documentation Center.

Last reported at 2014-Sep-08 23:19 UTC. Time now 2014-Oct-01 06:10 UTC.
Position N 26°05' W 080°11'.
Warning: this ship's position is 22 days out of date.

Length 42 m; draft 2.5 m.

Type: Pleasure craft. MMSI: 367460010.

Date/timePositionNaut miles runAvg speedWind from/ knotsBaromVisibWave heightAir tempDewpointWater temp
2014-Sep-08 23:19N 26°05' W 080°11'0 0.0
2014-Sep-08 22:33N 26°05' W 080°11'1 1.2
2014-Sep-08 21:33N 26°06' W 080°10'3 2.7
2014-Sep-08 20:33N 26°07' W 080°07'1 0.9
2014-Sep-08 19:33N 26°07' W 080°07'0 0.0
2014-Sep-08 18:33N 26°07' W 080°07'0 0.0
2014-Sep-08 17:31N 26°07' W 080°07'0 0.0
2014-Sep-08 16:31N 26°07' W 080°07'0 0.0
2014-Sep-08 15:31N 26°07' W 080°07'0 0.0
2014-Sep-08 14:31N 26°07' W 080°07'0 0.0
2014-Sep-08 13:19N 26°07' W 080°07'0 0.0
2014-Sep-08 12:31N 26°07' W 080°07'0 0.0
2014-Sep-08 11:22N 26°07' W 080°07'0 0.0
2014-Sep-08 10:22N 26°07' W 080°07'0 0.0
2014-Sep-08 09:25N 26°07' W 080°07'0 0.0
2014-Sep-08 08:25N 26°07' W 080°07'0 0.0
2014-Sep-08 07:25N 26°07' W 080°07'0 0.0
2014-Sep-08 06:28N 26°07' W 080°07'0 0.0
2014-Sep-08 05:28N 26°07' W 080°07'0 0.0
2014-Sep-08 04:28N 26°07' W 080°07'0 0.0
2014-Sep-08 03:31N 26°07' W 080°07'0 0.0
2014-Sep-08 02:31N 26°07' W 080°07'0 0.0
2014-Sep-08 01:31N 26°07' W 080°07'0 0.0
2014-Sep-08 00:31N 26°07' W 080°07'0 0.0
2014-Sep-07 23:31N 26°07' W 080°07'0 0.0
2014-Sep-07 21:31N 26°07' W 080°07'0 0.0
2014-Sep-07 20:22N 26°07' W 080°07'0 0.0
2014-Sep-07 19:25N 26°07' W 080°07'0 0.0
2014-Sep-07 18:25N 26°07' W 080°07'0 0.0
2014-Sep-07 17:25N 26°07' W 080°07'0 0.0
2014-Sep-07 16:28N 26°07' W 080°07'0 0.0
2014-Sep-07 15:28N 26°07' W 080°07'0 0.0
2014-Sep-07 14:25N 26°07' W 080°07'0 0.0
2014-Sep-07 13:31N 26°07' W 080°07'0 0.0
2014-Sep-07 12:31N 26°07' W 080°07'0 0.0
2014-Sep-07 11:31N 26°07' W 080°07'0 0.0
2014-Sep-07 10:31N 26°07' W 080°07'0 0.0
2014-Sep-07 09:31N 26°07' W 080°07'0 0.0
2014-Sep-07 08:31N 26°07' W 080°07'0 0.0
2014-Sep-07 07:31N 26°07' W 080°07'0 0.0
2014-Sep-07 06:22N 26°07' W 080°07'0 0.0
2014-Sep-07 05:22N 26°07' W 080°07'0 0.0
2014-Sep-07 04:25N 26°07' W 080°07'0 0.0
2014-Sep-07 03:22N 26°07' W 080°07'0 0.0
2014-Sep-07 02:25N 26°07' W 080°07'0 0.0
2014-Sep-07 01:28N 26°07' W 080°07'0 0.0
2014-Sep-07 00:28N 26°07' W 080°07'0 0.0
2014-Sep-06 23:28N 26°07' W 080°07'0 0.0
2014-Sep-06 22:31N 26°07' W 080°07'0 0.0
2014-Sep-06 21:31N 26°07' W 080°07'0 0.0
2014-Sep-06 20:31N 26°07' W 080°07'0 0.0
2014-Sep-06 19:31N 26°07' W 080°07'0 0.0
2014-Sep-06 18:31N 26°07' W 080°07'0 0.0
2014-Sep-06 17:31N 26°07' W 080°07'0 0.0
2014-Sep-06 16:31N 26°07' W 080°07'0 0.0
2014-Sep-06 15:22N 26°07' W 080°07'0 0.0
2014-Sep-06 14:25N 26°07' W 080°07'0 0.0
2014-Sep-06 13:25N 26°07' W 080°07'0 0.0
2014-Sep-06 12:25N 26°07' W 080°07'0 0.0
2014-Sep-06 11:28N 26°07' W 080°07'0 0.0
2014-Sep-06 10:28N 26°07' W 080°07'0 0.0
2014-Sep-06 09:28N 26°07' W 080°07'0 0.0
2014-Sep-06 08:31N 26°07' W 080°07'0 0.0
2014-Sep-06 07:31N 26°07' W 080°07'0 0.0
2014-Sep-06 06:31N 26°07' W 080°07'0 0.0
2014-Sep-06 05:31N 26°07' W 080°07'0 0.0
2014-Sep-06 04:31N 26°07' W 080°07'0 0.0
2014-Sep-06 03:31N 26°07' W 080°07'0 0.0
2014-Sep-06 02:31N 26°07' W 080°07'0 0.0
2014-Sep-06 01:22N 26°07' W 080°07'4 5.0
2014-Sep-06 00:34N 26°11' W 080°06'3 3.0
2014-Sep-05 23:33N 26°08' W 080°06'2 2.3
2014-Sep-05 22:33N 26°06' W 080°07'1 1.2
2014-Sep-05 21:30N 26°07' W 080°07'0 0.0
2014-Sep-05 20:33N 26°07' W 080°07'0 0.0
2014-Sep-05 19:33N 26°07' W 080°07'0 0.0
2014-Sep-05 18:33N 26°07' W 080°07'0 0.0
2014-Sep-05 17:33N 26°07' W 080°07'0 0.0
2014-Sep-05 16:33N 26°07' W 080°07'0 0.0
2014-Sep-05 15:33N 26°07' W 080°07'0 0.0
2014-Sep-05 14:33N 26°07' W 080°07'0 0.0
2014-Sep-05 13:33N 26°07' W 080°07'0 0.0
2014-Sep-05 12:24N 26°07' W 080°07'0 0.0
2014-Sep-05 11:27N 26°07' W 080°07'0 0.0
2014-Sep-05 10:27N 26°07' W 080°07'0 0.0
2014-Sep-05 09:27N 26°07' W 080°07'0 0.0
2014-Sep-05 08:30N 26°07' W 080°07'0 0.0
2014-Sep-05 07:30N 26°07' W 080°07'0 0.0
2014-Sep-05 06:30N 26°07' W 080°07'0 0.0
2014-Sep-05 05:33N 26°07' W 080°07'0 0.0
2014-Sep-05 04:33N 26°07' W 080°07'0 0.0
2014-Sep-05 03:21N 26°07' W 080°07'0 0.0
2014-Sep-05 02:33N 26°07' W 080°07'0 0.0
2014-Sep-05 01:33N 26°07' W 080°07'0 0.0
2014-Sep-05 00:33N 26°07' W 080°07'0 0.0
2014-Sep-04 23:33N 26°07' W 080°07'0 0.0
2014-Sep-04 22:24N 26°07' W 080°07'0 0.0
2014-Sep-04 21:27N 26°07' W 080°07'0 0.0
2014-Sep-04 20:27N 26°07' W 080°07'0 0.0
2014-Sep-04 19:27N 26°07' W 080°07'0 0.0
2014-Sep-04 18:30N 26°07' W 080°07'0 0.0
2014-Sep-04 17:30N 26°07' W 080°07'0 0.0
2014-Sep-04 16:30N 26°07' W 080°07'0 0.0
2014-Sep-04 15:33N 26°07' W 080°07'1 1.4
2014-Sep-04 14:33N 26°07' W 080°08'3 2.9
2014-Sep-04 13:33N 26°05' W 080°11'  
Track history (hours):
 
Tides and Currents Weather Stations Pressure Air Temp Water Temp Dewpoint Dewpoint Depression Visibility Wind Speed Wind Dir Waves Ship Positions

Horizon

Owner: ACA MARINE CORP, MAYFIELD HEIGHTS, OH. More information available from US FCC via Universal Licensing System and Coast Guard Vessel Documentation Center.

Last reported at 2014-Sep-08 23:19 UTC. Time now 2014-Oct-01 06:10 UTC.
Position N 26°05' W 080°11'.
Warning: this ship's position is 22 days out of date.

Length 42 m; draft 2.5 m.

Type: Pleasure craft. MMSI: 367460010.

Date/timePositionNaut miles runAvg speedWind from/ knotsBaromVisibWave heightAir tempDewpointWater temp
2014-Sep-08 23:19N 26°05' W 080°11'0 0.0
2014-Sep-08 22:33N 26°05' W 080°11'1 1.2
2014-Sep-08 21:33N 26°06' W 080°10'3 2.7
2014-Sep-08 20:33N 26°07' W 080°07'1 0.9
2014-Sep-08 19:33N 26°07' W 080°07'0 0.0
2014-Sep-08 18:33N 26°07' W 080°07'0 0.0
2014-Sep-08 17:31N 26°07' W 080°07'0 0.0
2014-Sep-08 16:31N 26°07' W 080°07'0 0.0
2014-Sep-08 15:31N 26°07' W 080°07'0 0.0
2014-Sep-08 14:31N 26°07' W 080°07'0 0.0
2014-Sep-08 13:19N 26°07' W 080°07'0 0.0
2014-Sep-08 12:31N 26°07' W 080°07'0 0.0
2014-Sep-08 11:22N 26°07' W 080°07'0 0.0
2014-Sep-08 10:22N 26°07' W 080°07'0 0.0
2014-Sep-08 09:25N 26°07' W 080°07'0 0.0
2014-Sep-08 08:25N 26°07' W 080°07'0 0.0
2014-Sep-08 07:25N 26°07' W 080°07'0 0.0
2014-Sep-08 06:28N 26°07' W 080°07'0 0.0
2014-Sep-08 05:28N 26°07' W 080°07'0 0.0
2014-Sep-08 04:28N 26°07' W 080°07'0 0.0
2014-Sep-08 03:31N 26°07' W 080°07'0 0.0
2014-Sep-08 02:31N 26°07' W 080°07'0 0.0
2014-Sep-08 01:31N 26°07' W 080°07'0 0.0
2014-Sep-08 00:31N 26°07' W 080°07'0 0.0
2014-Sep-07 23:31N 26°07' W 080°07'0 0.0
2014-Sep-07 21:31N 26°07' W 080°07'0 0.0
2014-Sep-07 20:22N 26°07' W 080°07'0 0.0
2014-Sep-07 19:25N 26°07' W 080°07'0 0.0
2014-Sep-07 18:25N 26°07' W 080°07'0 0.0
2014-Sep-07 17:25N 26°07' W 080°07'0 0.0
2014-Sep-07 16:28N 26°07' W 080°07'0 0.0
2014-Sep-07 15:28N 26°07' W 080°07'0 0.0
2014-Sep-07 14:25N 26°07' W 080°07'0 0.0
2014-Sep-07 13:31N 26°07' W 080°07'0 0.0
2014-Sep-07 12:31N 26°07' W 080°07'0 0.0
2014-Sep-07 11:31N 26°07' W 080°07'0 0.0
2014-Sep-07 10:31N 26°07' W 080°07'0 0.0
2014-Sep-07 09:31N 26°07' W 080°07'0 0.0
2014-Sep-07 08:31N 26°07' W 080°07'0 0.0
2014-Sep-07 07:31N 26°07' W 080°07'0 0.0
2014-Sep-07 06:22N 26°07' W 080°07'0 0.0
2014-Sep-07 05:22N 26°07' W 080°07'0 0.0
2014-Sep-07 04:25N 26°07' W 080°07'0 0.0
2014-Sep-07 03:22N 26°07' W 080°07'0 0.0
2014-Sep-07 02:25N 26°07' W 080°07'0 0.0
2014-Sep-07 01:28N 26°07' W 080°07'0 0.0
2014-Sep-07 00:28N 26°07' W 080°07'0 0.0
2014-Sep-06 23:28N 26°07' W 080°07'0 0.0
2014-Sep-06 22:31N 26°07' W 080°07'0 0.0
2014-Sep-06 21:31N 26°07' W 080°07'0 0.0
2014-Sep-06 20:31N 26°07' W 080°07'0 0.0
2014-Sep-06 19:31N 26°07' W 080°07'0 0.0
2014-Sep-06 18:31N 26°07' W 080°07'0 0.0
2014-Sep-06 17:31N 26°07' W 080°07'0 0.0
2014-Sep-06 16:31N 26°07' W 080°07'0 0.0
2014-Sep-06 15:22N 26°07' W 080°07'0 0.0
2014-Sep-06 14:25N 26°07' W 080°07'0 0.0
2014-Sep-06 13:25N 26°07' W 080°07'0 0.0
2014-Sep-06 12:25N 26°07' W 080°07'0 0.0
2014-Sep-06 11:28N 26°07' W 080°07'0 0.0
2014-Sep-06 10:28N 26°07' W 080°07'0 0.0
2014-Sep-06 09:28N 26°07' W 080°07'0 0.0
2014-Sep-06 08:31N 26°07' W 080°07'0 0.0
2014-Sep-06 07:31N 26°07' W 080°07'0 0.0
2014-Sep-06 06:31N 26°07' W 080°07'0 0.0
2014-Sep-06 05:31N 26°07' W 080°07'0 0.0
2014-Sep-06 04:31N 26°07' W 080°07'0 0.0
2014-Sep-06 03:31N 26°07' W 080°07'0 0.0
2014-Sep-06 02:31N 26°07' W 080°07'0 0.0
2014-Sep-06 01:22N 26°07' W 080°07'4 5.0
2014-Sep-06 00:34N 26°11' W 080°06'3 3.0
2014-Sep-05 23:33N 26°08' W 080°06'2 2.3
2014-Sep-05 22:33N 26°06' W 080°07'1 1.2
2014-Sep-05 21:30N 26°07' W 080°07'0 0.0
2014-Sep-05 20:33N 26°07' W 080°07'0 0.0
2014-Sep-05 19:33N 26°07' W 080°07'0 0.0
2014-Sep-05 18:33N 26°07' W 080°07'0 0.0
2014-Sep-05 17:33N 26°07' W 080°07'0 0.0
2014-Sep-05 16:33N 26°07' W 080°07'0 0.0
2014-Sep-05 15:33N 26°07' W 080°07'0 0.0
2014-Sep-05 14:33N 26°07' W 080°07'0 0.0
2014-Sep-05 13:33N 26°07' W 080°07'0 0.0
2014-Sep-05 12:24N 26°07' W 080°07'0 0.0
2014-Sep-05 11:27N 26°07' W 080°07'0 0.0
2014-Sep-05 10:27N 26°07' W 080°07'0 0.0
2014-Sep-05 09:27N 26°07' W 080°07'0 0.0
2014-Sep-05 08:30N 26°07' W 080°07'0 0.0
2014-Sep-05 07:30N 26°07' W 080°07'0 0.0
2014-Sep-05 06:30N 26°07' W 080°07'0 0.0
2014-Sep-05 05:33N 26°07' W 080°07'0 0.0
2014-Sep-05 04:33N 26°07' W 080°07'0 0.0
2014-Sep-05 03:21N 26°07' W 080°07'0 0.0
2014-Sep-05 02:33N 26°07' W 080°07'0 0.0
2014-Sep-05 01:33N 26°07' W 080°07'0 0.0
2014-Sep-05 00:33N 26°07' W 080°07'0 0.0
2014-Sep-04 23:33N 26°07' W 080°07'0 0.0
2014-Sep-04 22:24N 26°07' W 080°07'0 0.0
2014-Sep-04 21:27N 26°07' W 080°07'0 0.0
2014-Sep-04 20:27N 26°07' W 080°07'0 0.0
2014-Sep-04 19:27N 26°07' W 080°07'0 0.0
2014-Sep-04 18:30N 26°07' W 080°07'0 0.0
2014-Sep-04 17:30N 26°07' W 080°07'0 0.0
2014-Sep-04 16:30N 26°07' W 080°07'0 0.0
2014-Sep-04 15:33N 26°07' W 080°07'1 1.4
2014-Sep-04 14:33N 26°07' W 080°08'3 2.9
2014-Sep-04 13:33N 26°05' W 080°11'  

Dump ship's entire track history